Oxford, Indiana
Current Conditions -  °F | °C
As of 12:54 AM on Friday 28 Nov 2014 (Local Time) from KLAF Reporting Station
Clear Clear  
Wind Chill: -8°   Ceiling: Unl
Heat Index: -8°   Visibility: 10mi
Dew Point: -10°   Wind: 3mph
Humidity: 84%   Direction: 240°WSW
Pressure: 30.4"   Gusts: NA
Location:  40.52°N, 87.25°W
Report Text: KLAF 280554Z AUTO 24003KT 10SM CLR M08/M10 A3040 RMK AO2 SLP301 60000 T10781100 11039 21078 58005 TSNO
Loading
Personal Weather Stations






























Interactive Weather Map New forecast layout! Learn more

10-Day Weather Forecast

Advertisements
Track Severe Weather on mobile